Mt Champion Express — A8QN4 — position and weather

sailwx.info

Track history (hours):
 
Tides and Currents Weather Stations Pressure Air Temp Water Temp Dewpoint Dewpoint Depression Visibility Wind Speed Wind Dir Waves Ship Positions

Mt Champion Express

Last reported at 2015-Jul-03 06:33 UTC. Time now 2015-Jul-04 20:46 UTC.
Position N 39°11' W 009°57'.

Length 192 m; draft 7 m.

Type: Tanker. MMSI: 636013968.

Date/timePositionNaut miles runAvg speedWind from/ knotsBaromVisibWave heightAir tempDewpointWater temp
2015-Jul-03 06:33N 39°11' W 009°57'1211.6
2015-Jul-03 05:33N 38°60' W 009°57'1211.5
2015-Jul-03 04:33N 38°48' W 009°57'1211.9
2015-Jul-03 03:33N 38°36' W 009°56'1211.8
2015-Jul-03 02:33N 38°25' W 009°52'1111.4
2015-Jul-03 01:33N 38°14' W 009°49'1110.9
2015-Jul-03 00:33N 38°03' W 009°46'1210.8
2015-Jul-02 23:25N 37°51' W 009°43'1011.2
2015-Jul-02 22:33N 37°42' W 009°40'1111.0
2015-Jul-02 21:33N 37°31' W 009°37'1110.7
2015-Jul-02 20:32N 37°20' W 009°34'1111.0
2015-Jul-02 19:33N 37°10' W 009°30'1110.7
2015-Jul-02 18:33N 36°59' W 009°27'1510.5
2015-Jul-02 17:11N 36°47' W 009°19'18711.0
2015-Jul-02 00:12N 35°58' W 005°36'710.6
2015-Jul-01 23:33N 35°59' W 005°27'9 8.8
2015-Jul-01 22:33N 36°01' W 005°17'13510.9
2015-Jul-01 10:14N 36°22' W 002°32'10912.6
2015-Jul-01 01:33N 36°55' W 000°22'1211.9
2015-Jul-01 00:33N 36°59' W 000°08'1311.9
2015-Jun-30 23:29N 37°03' E 000°07'1212.2
2015-Jun-30 22:33N 37°07' E 000°20'1812.0
2015-Jun-30 21:04N 37°13' E 000°41'1912.1
2015-Jun-30 19:31N 37°19' E 001°03'1411.9
2015-Jun-30 18:23N 37°24' E 001°19'1011.9
2015-Jun-30 17:33N 37°27' E 001°31'1212.1
2015-Jun-30 16:33N 37°31' E 001°46'1212.0
2015-Jun-30 15:33N 37°35' E 002°00'1212.2
2015-Jun-30 14:33N 37°39' E 002°15'1212.2
2015-Jun-30 13:33N 37°43' E 002°29'1211.9
2015-Jun-30 12:33N 37°43' E 002°44'1312.3
2015-Jun-30 11:32N 37°43' E 003°00'1212.0
2015-Jun-30 10:33N 37°43' E 003°15'1212.0
2015-Jun-30 09:33N 37°43' E 003°30'1212.1
2015-Jun-30 08:32N 37°43' E 003°46'2812.1
2015-Jun-30 06:11N 37°43' E 004°21'812.2
2015-Jun-30 05:30N 37°43' E 004°32'1312.4
2015-Jun-30 04:29N 37°43' E 004°48'1212.4
2015-Jun-30 03:33N 37°43' E 005°02'1212.1
2015-Jun-30 02:33N 37°43' E 005°18'29911.9
2015-Jun-29 01:23N 37°18' E 011°33'1411.9
2015-Jun-29 00:13N 37°11' E 011°48'811.8
2015-Jun-28 23:33N 37°07' E 011°57'1211.9
2015-Jun-28 22:32N 37°03' E 012°11'1211.6
2015-Jun-28 21:33N 36°59' E 012°25'1211.8
2015-Jun-28 20:33N 36°55' E 012°38'1211.9
2015-Jun-28 19:33N 36°52' E 012°52'1411.9
2015-Jun-28 18:25N 36°47' E 013°08'1011.8
2015-Jun-28 17:33N 36°44' E 013°20'1211.7
2015-Jun-28 16:31N 36°39' E 013°34'1111.6
2015-Jun-28 15:33N 36°36' E 013°47'1111.4
2015-Jun-28 14:33N 36°32' E 014°01'1211.8
2015-Jun-28 13:33N 36°29' E 014°15'1211.7
2015-Jun-28 12:33N 36°25' E 014°29'1111.4
2015-Jun-28 11:33N 36°21' E 014°42'1111.4
2015-Jun-28 10:33N 36°17' E 014°56'6112.2
2015-Jun-28 05:33N 35°57' E 016°07'  
Track history (hours):
 
Tides and Currents Weather Stations Pressure Air Temp Water Temp Dewpoint Dewpoint Depression Visibility Wind Speed Wind Dir Waves Ship Positions

Mt Champion Express

Last reported at 2015-Jul-03 06:33 UTC. Time now 2015-Jul-04 20:46 UTC.
Position N 39°11' W 009°57'.

Length 192 m; draft 7 m.

Type: Tanker. MMSI: 636013968.

Date/timePositionNaut miles runAvg speedWind from/ knotsBaromVisibWave heightAir tempDewpointWater temp
2015-Jul-03 06:33N 39°11' W 009°57'1211.6
2015-Jul-03 05:33N 38°60' W 009°57'1211.5
2015-Jul-03 04:33N 38°48' W 009°57'1211.9
2015-Jul-03 03:33N 38°36' W 009°56'1211.8
2015-Jul-03 02:33N 38°25' W 009°52'1111.4
2015-Jul-03 01:33N 38°14' W 009°49'1110.9
2015-Jul-03 00:33N 38°03' W 009°46'1210.8
2015-Jul-02 23:25N 37°51' W 009°43'1011.2
2015-Jul-02 22:33N 37°42' W 009°40'1111.0
2015-Jul-02 21:33N 37°31' W 009°37'1110.7
2015-Jul-02 20:32N 37°20' W 009°34'1111.0
2015-Jul-02 19:33N 37°10' W 009°30'1110.7
2015-Jul-02 18:33N 36°59' W 009°27'1510.5
2015-Jul-02 17:11N 36°47' W 009°19'18711.0
2015-Jul-02 00:12N 35°58' W 005°36'710.6
2015-Jul-01 23:33N 35°59' W 005°27'9 8.8
2015-Jul-01 22:33N 36°01' W 005°17'13510.9
2015-Jul-01 10:14N 36°22' W 002°32'10912.6
2015-Jul-01 01:33N 36°55' W 000°22'1211.9
2015-Jul-01 00:33N 36°59' W 000°08'1311.9
2015-Jun-30 23:29N 37°03' E 000°07'1212.2
2015-Jun-30 22:33N 37°07' E 000°20'1812.0
2015-Jun-30 21:04N 37°13' E 000°41'1912.1
2015-Jun-30 19:31N 37°19' E 001°03'1411.9
2015-Jun-30 18:23N 37°24' E 001°19'1011.9
2015-Jun-30 17:33N 37°27' E 001°31'1212.1
2015-Jun-30 16:33N 37°31' E 001°46'1212.0
2015-Jun-30 15:33N 37°35' E 002°00'1212.2
2015-Jun-30 14:33N 37°39' E 002°15'1212.2
2015-Jun-30 13:33N 37°43' E 002°29'1211.9
2015-Jun-30 12:33N 37°43' E 002°44'1312.3
2015-Jun-30 11:32N 37°43' E 003°00'1212.0
2015-Jun-30 10:33N 37°43' E 003°15'1212.0
2015-Jun-30 09:33N 37°43' E 003°30'1212.1
2015-Jun-30 08:32N 37°43' E 003°46'2812.1
2015-Jun-30 06:11N 37°43' E 004°21'812.2
2015-Jun-30 05:30N 37°43' E 004°32'1312.4
2015-Jun-30 04:29N 37°43' E 004°48'1212.4
2015-Jun-30 03:33N 37°43' E 005°02'1212.1
2015-Jun-30 02:33N 37°43' E 005°18'29911.9
2015-Jun-29 01:23N 37°18' E 011°33'1411.9
2015-Jun-29 00:13N 37°11' E 011°48'811.8
2015-Jun-28 23:33N 37°07' E 011°57'1211.9
2015-Jun-28 22:32N 37°03' E 012°11'1211.6
2015-Jun-28 21:33N 36°59' E 012°25'1211.8
2015-Jun-28 20:33N 36°55' E 012°38'1211.9
2015-Jun-28 19:33N 36°52' E 012°52'1411.9
2015-Jun-28 18:25N 36°47' E 013°08'1011.8
2015-Jun-28 17:33N 36°44' E 013°20'1211.7
2015-Jun-28 16:31N 36°39' E 013°34'1111.6
2015-Jun-28 15:33N 36°36' E 013°47'1111.4
2015-Jun-28 14:33N 36°32' E 014°01'1211.8
2015-Jun-28 13:33N 36°29' E 014°15'1211.7
2015-Jun-28 12:33N 36°25' E 014°29'1111.4
2015-Jun-28 11:33N 36°21' E 014°42'1111.4
2015-Jun-28 10:33N 36°17' E 014°56'6112.2
2015-Jun-28 05:33N 35°57' E 016°07'  

Dump ship's entire track history